createdAt,value
2023-01-13T00:00:47.186Z,0.65
2023-01-13T00:03:13.541Z,0.50
2023-01-13T00:05:39.917Z,0.57
2023-01-13T00:08:06.495Z,0.80
2023-01-13T00:10:34.010Z,0.80
2023-01-13T00:13:01.938Z,0.50
2023-01-13T00:15:28.456Z,0.50
2023-01-13T00:17:54.791Z,0.63
2023-01-13T00:20:21.138Z,0.40
2023-01-13T00:22:47.463Z,0.70
2023-01-13T00:25:13.744Z,0.60
2023-01-13T00:27:40.144Z,0.50
2023-01-13T00:30:07.431Z,0.52
2023-01-13T00:32:33.864Z,0.60
2023-01-13T00:35:00.171Z,0.37
2023-01-13T00:37:27.232Z,1.08
2023-01-13T00:39:53.644Z,0.60
2023-01-13T00:42:38.716Z,0.60
2023-01-13T00:45:05.709Z,0.70
2023-01-13T00:47:32.010Z,0.70
2023-01-13T00:49:58.346Z,0.60
2023-01-13T00:52:24.662Z,0.50
2023-01-13T00:54:50.949Z,0.60
2023-01-13T00:57:17.293Z,0.85
2023-01-13T00:59:43.564Z,0.50
2023-01-13T01:02:10.609Z,0.70
2023-01-13T01:04:36.925Z,0.50
2023-01-13T01:07:03.230Z,0.45
2023-01-13T01:09:32.667Z,0.77
2023-01-13T01:12:00.540Z,0.57
2023-01-13T01:14:27.434Z,0.55
2023-01-13T01:16:54.433Z,0.55
2023-01-13T01:19:20.713Z,1.00
2023-01-13T01:21:47.070Z,0.40
2023-01-13T01:24:13.355Z,0.57
2023-01-13T01:26:41.722Z,0.73
2023-01-13T01:29:11.920Z,0.60
2023-01-13T01:31:38.249Z,0.60
2023-01-13T01:34:04.561Z,0.55
2023-01-13T01:36:30.996Z,0.67
2023-01-13T01:38:59.114Z,0.43
2023-01-13T01:41:28.870Z,0.68
2023-01-13T01:43:59.025Z,0.60
2023-01-13T01:46:41.529Z,0.52
2023-01-13T01:49:29.266Z,0.73
2023-01-13T01:52:06.677Z,0.43
2023-01-13T01:54:46.845Z,0.93
2023-01-13T01:57:19.635Z,0.50
2023-01-13T01:59:46.211Z,0.47
2023-01-13T02:02:12.881Z,0.47
2023-01-13T02:04:43.083Z,0.73
2023-01-13T02:07:09.441Z,0.52
2023-01-13T02:09:36.527Z,0.50
2023-01-13T02:12:21.395Z,0.57
2023-01-13T02:14:47.849Z,0.70
2023-01-13T02:17:35.904Z,0.40
2023-01-13T02:20:27.110Z,0.88
2023-01-13T02:23:36.597Z,0.68
2023-01-13T02:26:35.605Z,0.60
2023-01-13T02:29:52.137Z,0.60
2023-01-13T02:32:35.645Z,0.40
2023-01-13T02:35:01.897Z,0.47
2023-01-13T02:37:32.808Z,0.57
2023-01-13T02:40:05.837Z,0.82
2023-01-13T02:42:53.053Z,0.77
2023-01-13T02:45:26.066Z,0.50
2023-01-13T02:47:55.728Z,0.40
2023-01-13T02:50:48.621Z,0.50
2023-01-13T02:53:21.731Z,0.47
2023-01-13T02:55:51.436Z,0.90
2023-01-13T02:58:22.452Z,0.50
2023-01-13T03:00:49.320Z,0.70
2023-01-13T03:03:15.723Z,0.60
2023-01-13T03:05:44.760Z,0.40
2023-01-13T03:08:43.156Z,0.53
2023-01-13T03:11:12.803Z,0.60
2023-01-13T03:14:10.818Z,0.65
2023-01-13T03:17:11.186Z,0.40
2023-01-13T03:19:46.606Z,0.50
2023-01-13T03:22:38.212Z,0.50
2023-01-13T03:25:15.355Z,0.80
2023-01-13T03:27:50.509Z,0.82
2023-01-13T03:30:42.607Z,0.40
2023-01-13T03:33:15.686Z,0.50
2023-01-13T03:35:45.894Z,0.50
2023-01-13T03:38:20.091Z,0.40
2023-01-13T03:40:59.864Z,0.68
2023-01-13T03:43:55.525Z,0.50
2023-01-13T03:46:29.415Z,0.30
2023-01-13T03:48:59.508Z,0.40
2023-01-13T03:51:30.928Z,0.35
2023-01-13T03:54:04.562Z,0.30
2023-01-13T03:56:42.754Z,0.30
2023-01-13T03:59:14.353Z,0.30
2023-01-13T04:02:03.646Z,0.60
2023-01-13T04:04:34.594Z,0.60
2023-01-13T04:07:31.518Z,1.05
2023-01-13T04:10:01.985Z,0.40
2023-01-13T04:12:49.423Z,0.50
2023-01-13T04:15:18.236Z,0.33
2023-01-13T04:17:44.604Z,0.68
2023-01-13T04:20:11.375Z,0.70
2023-01-13T04:22:37.776Z,0.40
2023-01-13T04:25:04.895Z,0.50
2023-01-13T04:27:31.258Z,0.53
2023-01-13T04:29:57.708Z,0.60
2023-01-13T04:32:24.072Z,0.50
2023-01-13T04:34:50.495Z,0.70
2023-01-13T04:37:16.788Z,0.50
2023-01-13T04:39:43.121Z,0.67
2023-01-13T04:42:09.538Z,0.40
2023-01-13T04:44:36.045Z,0.40
2023-01-13T04:47:02.662Z,0.60
2023-01-13T04:49:28.950Z,0.40
2023-01-13T04:51:55.428Z,1.00
2023-01-13T04:54:21.797Z,0.35
2023-01-13T04:56:48.135Z,0.88
2023-01-13T04:59:14.779Z,0.68
2023-01-13T05:01:41.349Z,0.55
2023-01-13T05:04:08.113Z,0.43
2023-01-13T05:06:34.532Z,0.50
2023-01-13T05:09:00.842Z,0.75
2023-01-13T05:11:45.660Z,0.50
2023-01-13T05:14:34.920Z,0.30
2023-01-13T05:17:01.741Z,0.80
2023-01-13T05:19:28.827Z,0.50
2023-01-13T05:22:13.841Z,0.40
2023-01-13T05:24:59.564Z,0.52
2023-01-13T05:27:26.255Z,0.32
2023-01-13T05:29:52.837Z,0.60
2023-01-13T05:32:19.377Z,0.40
2023-01-13T05:34:45.785Z,0.40
2023-01-13T05:37:13.177Z,0.57
2023-01-13T05:39:59.659Z,0.63
2023-01-13T05:42:45.036Z,0.50
2023-01-13T05:45:12.472Z,0.70
2023-01-13T05:47:39.035Z,0.47
2023-01-13T05:50:05.564Z,0.60
2023-01-13T05:52:32.203Z,0.60
2023-01-13T05:54:58.605Z,0.60
2023-01-13T05:57:25.055Z,0.63
2023-01-13T05:59:51.420Z,0.50
2023-01-13T06:02:17.800Z,0.50
2023-01-13T06:04:45.258Z,0.80
2023-01-13T06:07:12.425Z,0.50
2023-01-13T06:09:38.832Z,0.70
2023-01-13T06:12:05.555Z,0.35
2023-01-13T06:14:40.903Z,0.63
2023-01-13T06:17:08.829Z,0.40
2023-01-13T06:19:35.384Z,0.40
2023-01-13T06:22:16.667Z,0.43
2023-01-13T06:24:45.877Z,0.60
2023-01-13T06:27:12.872Z,0.45
2023-01-13T06:29:39.251Z,0.55
2023-01-13T06:32:11.278Z,0.30
2023-01-13T06:34:38.285Z,0.50
2023-01-13T06:37:05.237Z,0.73
2023-01-13T06:39:31.953Z,0.45
2023-01-13T06:42:17.838Z,0.65
2023-01-13T06:44:45.517Z,0.93
2023-01-13T06:47:15.635Z,0.50
2023-01-13T06:49:41.999Z,0.40
2023-01-13T06:52:08.280Z,0.57
2023-01-13T06:54:34.732Z,0.60
2023-01-13T06:57:01.907Z,0.30
2023-01-13T06:59:29.892Z,0.40
2023-01-13T07:01:57.156Z,0.50
2023-01-13T07:04:23.977Z,0.45
2023-01-13T07:06:50.437Z,0.50
2023-01-13T07:09:16.951Z,0.40
2023-01-13T07:11:43.543Z,0.38
2023-01-13T07:14:28.499Z,0.60
2023-01-13T07:16:54.952Z,0.50
2023-01-13T07:19:23.899Z,0.30
2023-01-13T07:21:53.464Z,0.60
2023-01-13T07:24:20.116Z,0.50
2023-01-13T07:26:46.470Z,0.63
2023-01-13T07:29:13.094Z,0.30
2023-01-13T07:31:39.876Z,0.43
2023-01-13T07:34:09.589Z,0.20
2023-01-13T07:36:36.480Z,0.30
2023-01-13T07:39:03.269Z,0.32
2023-01-13T07:41:50.939Z,0.30
2023-01-13T07:44:17.379Z,0.63
2023-01-13T07:46:43.849Z,0.40
2023-01-13T07:49:10.351Z,0.50
2023-01-13T07:51:38.815Z,4.28
2023-01-13T07:54:05.743Z,0.73
2023-01-13T07:56:32.545Z,2.00
2023-01-13T07:59:00.497Z,0.20
2023-01-13T08:01:27.954Z,0.30
2023-01-13T08:03:56.132Z,0.57
2023-01-13T08:06:22.491Z,1.05
2023-01-13T08:08:48.888Z,0.80
2023-01-13T08:11:15.392Z,1.03
2023-01-13T08:13:41.707Z,0.30
2023-01-13T08:16:10.588Z,0.40
2023-01-13T08:18:38.241Z,0.40
2023-01-13T08:21:07.794Z,0.45
2023-01-13T08:23:34.359Z,0.50
2023-01-13T08:26:02.656Z,0.40
2023-01-13T08:28:29.550Z,0.30
2023-01-13T08:30:59.683Z,0.50
2023-01-13T08:33:26.289Z,0.55
2023-01-13T08:35:53.226Z,0.40
2023-01-13T08:38:20.275Z,0.40
2023-01-13T08:40:46.612Z,0.60
2023-01-13T08:43:13.040Z,0.60
2023-01-13T08:45:39.351Z,0.57
2023-01-13T08:48:06.021Z,0.50
2023-01-13T08:50:32.493Z,0.90
2023-01-13T08:52:58.843Z,0.60
2023-01-13T08:55:25.173Z,0.60
2023-01-13T08:57:52.121Z,0.40
2023-01-13T09:00:19.847Z,0.60
2023-01-13T09:02:46.213Z,0.47
2023-01-13T09:05:12.630Z,0.77
2023-01-13T09:07:39.085Z,0.55
2023-01-13T09:10:07.234Z,0.80
2023-01-13T09:12:51.901Z,0.50
2023-01-13T09:15:21.683Z,0.50
2023-01-13T09:17:48.183Z,0.52
2023-01-13T09:20:14.763Z,0.68
2023-01-13T09:22:41.353Z,0.85
2023-01-13T09:25:08.621Z,0.50
2023-01-13T09:27:34.975Z,0.50
2023-01-13T09:30:01.429Z,0.40
2023-01-13T09:32:27.819Z,0.30
2023-01-13T09:35:00.366Z,0.40
2023-01-13T09:37:39.245Z,0.60
2023-01-13T09:40:12.202Z,0.52
2023-01-13T09:43:19.551Z,0.50
2023-01-13T09:45:58.771Z,0.50
2023-01-13T09:48:32.309Z,0.57
2023-01-13T09:51:02.608Z,0.40
2023-01-13T09:53:33.011Z,0.70
2023-01-13T09:56:00.052Z,0.88
2023-01-13T09:58:27.090Z,0.80
2023-01-13T10:00:53.462Z,0.40
2023-01-13T10:03:29.271Z,0.30
2023-01-13T10:06:21.411Z,0.50
2023-01-13T10:08:49.359Z,0.60
2023-01-13T10:11:42.884Z,0.60
2023-01-13T10:14:30.836Z,0.68
2023-01-13T10:17:26.345Z,0.67
2023-01-13T10:20:05.199Z,0.68
2023-01-13T10:22:49.618Z,0.60
2023-01-13T10:25:41.621Z,0.40
2023-01-13T10:28:13.778Z,0.40
2023-01-13T10:30:43.580Z,0.60
2023-01-13T10:33:34.175Z,0.50
2023-01-13T10:36:36.359Z,0.60
2023-01-13T10:39:32.387Z,0.30
2023-01-13T10:42:08.026Z,0.30
2023-01-13T10:44:56.391Z,0.53
2023-01-13T10:47:38.491Z,0.50
2023-01-13T10:50:11.483Z,0.32
2023-01-13T10:52:43.247Z,0.57
2023-01-13T10:55:36.750Z,0.40
2023-01-13T10:58:24.364Z,0.70
2023-01-13T11:04:28.940Z,0.65
2023-01-13T11:06:59.798Z,0.70
2023-01-13T11:09:31.042Z,0.60
2023-01-13T11:12:03.801Z,0.40
2023-01-13T11:14:57.489Z,0.55
2023-01-13T11:17:44.531Z,0.45
2023-01-13T11:20:31.484Z,0.30
2023-01-13T11:23:01.986Z,0.60
2023-01-13T11:25:48.323Z,0.47
2023-01-13T11:28:42.137Z,0.30
2023-01-13T11:31:45.836Z,0.50
2023-01-13T11:34:37.809Z,0.52
2023-01-13T11:37:26.823Z,0.57
2023-01-13T11:40:14.770Z,0.63
2023-01-13T11:43:05.391Z,0.50
2023-01-13T11:45:48.655Z,0.60
2023-01-13T11:48:26.312Z,1.00
2023-01-13T11:51:34.188Z,1.25
2023-01-13T11:54:29.656Z,0.80
2023-01-13T11:57:12.830Z,0.70
2023-01-13T12:00:14.347Z,0.52
2023-01-13T12:03:26.288Z,0.88
2023-01-13T12:06:31.123Z,0.70
2023-01-13T12:09:33.365Z,0.30
2023-01-13T12:13:00.898Z,0.50
2023-01-13T12:16:20.272Z,0.40
2023-01-13T12:19:20.825Z,0.43
2023-01-13T12:22:36.000Z,0.50
2023-01-13T12:25:45.014Z,0.90
2023-01-13T12:28:21.062Z,0.28
2023-01-13T12:33:51.452Z,0.40
2023-01-13T12:36:52.372Z,0.52
2023-01-13T12:39:56.813Z,0.50
2023-01-13T12:45:48.652Z,0.60
2023-01-13T12:48:57.357Z,0.50
2023-01-13T12:51:37.009Z,0.77
2023-01-13T12:54:37.516Z,0.70
2023-01-13T12:57:25.534Z,0.90
2023-01-13T13:00:04.115Z,0.60
2023-01-13T13:02:38.494Z,0.50
2023-01-13T13:05:23.324Z,0.60
2023-01-13T13:08:00.919Z,0.60
2023-01-13T13:10:33.816Z,2.50
2023-01-13T13:13:20.660Z,0.77
2023-01-13T13:15:49.560Z,3.38
2023-01-13T13:18:20.461Z,0.68
2023-01-13T13:21:09.643Z,0.70
2023-01-13T13:24:04.843Z,0.52
2023-01-13T13:26:38.382Z,1.00
2023-01-13T13:29:29.904Z,0.70
2023-01-13T13:32:25.899Z,1.13
2023-01-13T13:35:16.057Z,0.80
2023-01-13T13:38:13.766Z,0.80
2023-01-13T13:41:03.083Z,0.60
2023-01-13T13:43:55.507Z,0.60
2023-01-13T13:46:45.190Z,0.75
2023-01-13T13:49:13.217Z,0.40
2023-01-13T13:51:54.281Z,0.60
2023-01-13T13:54:22.744Z,0.45
2023-01-13T13:56:50.661Z,1.00
2023-01-13T13:59:23.852Z,0.98
2023-01-13T14:02:01.316Z,0.90
2023-01-13T14:04:33.386Z,0.80
2023-01-13T14:07:04.325Z,0.80
2023-01-13T14:09:41.320Z,0.60
2023-01-13T14:12:17.766Z,0.63
2023-01-13T14:14:45.639Z,0.90
2023-01-13T14:17:20.266Z,0.77
2023-01-13T14:19:53.375Z,1.05
2023-01-13T14:22:20.317Z,0.68
2023-01-13T14:24:49.382Z,0.60
2023-01-13T14:27:18.389Z,0.77
2023-01-13T14:29:45.214Z,0.85
2023-01-13T14:32:19.829Z,0.90
2023-01-13T14:34:46.986Z,0.80
2023-01-13T14:37:28.736Z,0.60
2023-01-13T14:39:55.529Z,0.70
2023-01-13T14:42:22.211Z,0.93
2023-01-13T14:44:50.604Z,0.50
2023-01-13T14:47:22.997Z,0.38
2023-01-13T14:50:00.568Z,0.77
2023-01-13T14:52:29.747Z,0.60
2023-01-13T14:54:58.953Z,0.70
2023-01-13T14:57:39.840Z,0.50
2023-01-13T15:00:15.119Z,0.40
2023-01-13T15:02:58.368Z,0.30
2023-01-13T15:05:27.794Z,0.30
2023-01-13T17:39:30.897Z,3.45
2023-01-13T17:41:57.422Z,2.55
2023-01-13T17:44:23.965Z,2.53
2023-01-13T17:46:50.829Z,2.03
2023-01-13T17:49:19.645Z,2.47
2023-01-13T17:51:48.334Z,4.13
2023-01-13T17:54:15.217Z,4.70
2023-01-13T17:56:42.539Z,1.27
2023-01-13T17:59:11.260Z,1.10
2023-01-13T18:01:38.675Z,0.95
2023-01-13T18:04:06.657Z,1.17
2023-01-13T18:06:33.788Z,1.25
2023-01-13T18:09:00.517Z,1.60
2023-01-13T18:11:27.423Z,2.47
2023-01-13T18:13:56.625Z,1.60
2023-01-13T18:16:25.273Z,2.22
2023-01-13T18:19:19.576Z,1.52
2023-01-13T18:22:05.734Z,1.60
2023-01-13T18:24:51.357Z,1.42
2023-01-13T18:27:23.933Z,1.85
2023-01-13T18:29:52.903Z,1.98
2023-01-13T18:32:20.240Z,2.15
2023-01-13T18:34:47.945Z,2.27
2023-01-13T18:37:16.385Z,2.65
2023-01-13T18:39:42.926Z,1.77
2023-01-13T18:42:29.141Z,1.40
2023-01-13T18:44:57.951Z,1.70
2023-01-13T18:47:29.358Z,2.47
2023-01-13T18:49:56.949Z,1.98
2023-01-13T18:52:24.471Z,2.20
2023-01-13T18:54:51.199Z,1.70
2023-01-13T18:57:17.911Z,2.05
2023-01-13T18:59:44.360Z,1.50
2023-01-13T19:02:15.330Z,3.33
2023-01-13T19:04:42.294Z,5.10
2023-01-13T19:07:12.123Z,4.25
2023-01-13T19:09:39.487Z,4.60
2023-01-13T19:12:10.023Z,4.30
2023-01-13T19:14:37.807Z,4.25
2023-01-13T19:17:06.627Z,4.35
2023-01-13T19:19:33.226Z,3.22
2023-01-13T19:21:59.544Z,3.42
2023-01-13T19:24:26.275Z,3.63
2023-01-13T19:26:54.656Z,3.85
2023-01-13T19:29:21.755Z,2.60
2023-01-13T19:31:48.374Z,2.78
2023-01-13T19:34:15.461Z,1.90
2023-01-13T19:36:42.278Z,1.80
2023-01-13T19:39:09.988Z,2.47
2023-01-13T19:41:55.366Z,2.63
2023-01-13T19:44:40.293Z,3.42
2023-01-13T19:47:06.720Z,3.25
2023-01-13T19:49:33.618Z,3.83
2023-01-13T19:52:00.111Z,2.80
2023-01-13T19:54:26.766Z,3.35
2023-01-13T19:56:53.392Z,2.42
2023-01-13T19:59:22.117Z,1.92
2023-01-13T20:01:48.793Z,1.90
2023-01-13T20:04:17.158Z,2.13
2023-01-13T20:06:44.305Z,1.70
2023-01-13T20:09:11.460Z,1.83
2023-01-13T20:11:37.835Z,1.92
2023-01-13T20:14:04.407Z,1.93
2023-01-13T20:16:33.200Z,2.28
2023-01-13T20:18:59.642Z,3.30
2023-01-13T20:21:26.568Z,2.08
2023-01-13T20:23:53.280Z,2.10
2023-01-13T20:26:20.434Z,2.20
2023-01-13T20:28:47.551Z,2.50
2023-01-13T20:31:14.972Z,1.98
2023-01-13T20:33:42.142Z,2.67
2023-01-13T20:36:15.916Z,2.30
2023-01-13T20:38:42.458Z,2.57
2023-01-13T20:41:27.590Z,2.90
2023-01-13T20:43:54.437Z,2.28
2023-01-13T20:46:22.619Z,2.08
2023-01-13T20:48:49.025Z,2.00
2023-01-13T20:51:15.553Z,1.83
2023-01-13T20:53:42.024Z,1.60
2023-01-13T20:56:09.114Z,1.67
2023-01-13T20:58:38.263Z,1.70
2023-01-13T21:01:04.998Z,1.92
2023-01-13T21:03:31.609Z,1.43
2023-01-13T21:05:58.483Z,2.47
2023-01-13T21:08:25.007Z,2.00
2023-01-13T21:10:51.554Z,1.67
2023-01-13T21:13:36.731Z,1.10
2023-01-13T21:16:03.568Z,2.53
2023-01-13T21:18:48.596Z,0.90
2023-01-13T21:21:15.683Z,0.55
2023-01-13T21:23:47.223Z,0.90
2023-01-13T21:26:15.673Z,0.90
2023-01-13T21:28:42.254Z,0.73
2023-01-13T21:31:09.438Z,1.42
2023-01-13T21:33:36.644Z,1.98
2023-01-13T21:36:08.350Z,1.50
2023-01-13T21:38:35.724Z,1.58
2023-01-13T21:41:07.114Z,0.60
2023-01-13T21:43:53.406Z,1.05
2023-01-13T21:46:39.645Z,1.30
2023-01-13T21:49:06.566Z,1.05
2023-01-13T21:51:35.390Z,0.80
2023-01-13T21:54:01.965Z,0.73
2023-01-13T21:56:28.471Z,0.73
2023-01-13T21:58:57.887Z,1.30
2023-01-13T22:01:25.398Z,0.80
2023-01-13T22:04:10.596Z,0.70
2023-01-13T22:06:37.243Z,0.67
2023-01-13T22:09:03.763Z,0.82
2023-01-13T22:11:32.193Z,0.57
2023-01-13T22:14:11.046Z,0.50
2023-01-13T22:16:48.597Z,0.57
2023-01-13T22:19:15.084Z,0.43
2023-01-13T22:21:41.933Z,0.77
2023-01-13T22:24:09.497Z,0.50
2023-01-13T22:26:36.092Z,0.60
2023-01-13T22:29:02.635Z,0.30
2023-01-13T22:31:31.365Z,0.40
2023-01-13T22:33:58.017Z,0.60
2023-01-13T22:36:24.654Z,0.50
2023-01-13T22:38:56.387Z,0.50
2023-01-13T22:41:23.259Z,0.75
2023-01-13T22:43:49.843Z,1.10
2023-01-13T22:46:17.139Z,1.08
2023-01-13T22:48:44.238Z,0.57
2023-01-13T22:51:13.050Z,0.50
2023-01-13T22:53:40.513Z,0.60
2023-01-13T22:56:15.145Z,0.40
2023-01-13T22:58:41.708Z,0.40
2023-01-13T23:01:10.817Z,0.90
2023-01-13T23:03:37.557Z,0.55
2023-01-13T23:06:04.718Z,0.82
2023-01-13T23:08:31.380Z,0.60
2023-01-13T23:11:07.080Z,0.60
2023-01-13T23:13:34.028Z,0.35
2023-01-13T23:16:14.546Z,0.70
2023-01-13T23:18:42.769Z,0.35
2023-01-13T23:21:12.595Z,0.50
2023-01-13T23:23:39.615Z,0.40
2023-01-13T23:26:07.290Z,1.05
2023-01-13T23:28:35.492Z,1.90
2023-01-13T23:31:10.271Z,0.95
2023-01-13T23:33:41.171Z,0.80
2023-01-13T23:36:12.976Z,0.73
2023-01-13T23:38:40.493Z,0.70
2023-01-13T23:41:09.018Z,0.47
2023-01-13T23:43:35.959Z,0.93
2023-01-13T23:46:04.775Z,0.40
2023-01-13T23:48:32.886Z,0.43
2023-01-13T23:51:01.019Z,0.65
2023-01-13T23:53:33.593Z,0.80
2023-01-13T23:56:01.819Z,0.82
2023-01-13T23:58:29.763Z,0.90
